Database: COMPET-N - COOP - 3PL - 4PL - CNDOOM

WAD: Doom | Doom 2 | TNT | Plutonia | AV | HR | Scythe | MM | MM2 | Requiem | CE
Category: speed | nmare | max | nm100s | tyson | pacifist | fast | respawn | nomo | misc | built | all
Highscore: ALL | IWAD | PWAD | Country | Continent

< Previous map       Next map >
Remove: wad | map | category | player | allMAP14
MapPlayerTimeDateFilenameCommentsDL
MAP14: The Inmost DensMarijo Sedlić20.002002-04-29lv14-020.zip - 260
MAP14: The Inmost DensAdam Hegyi25.002000-12-22lv14-025.zip - 138
MAP14: The Inmost DensVincent Catalaa29.002000-01-12lv14-029.zip - 144
MAP14: The Inmost DensThomas Pilger33.001999-03-01lv14-033.zip - 137
MAP14: The Inmost DensAdam Hegyi35.001999-02-28lv14-035.zip - 141
MAP14: The Inmost DensThomas Pilger40.001998-04-22lv14-040.zip - 126
MAP14: The Inmost DensDaniel Lindgren42.001996-11-01lv14-042.zip - 145
MAP14: The Inmost DensIstvan Pataki43.001996-10-16lv14-043.zip - 132
MAP14: The Inmost DensDaniel Lindgren1:06.001996-06-08lv14-106.zip - 150
MAP14: The Inmost DensMichael Kren1:08.001996-03-22lv14-108.zip - 95
MAP14: The Inmost DensDaniel Lindgren1:10.001996-03-03lv14-110.zip - 150
MAP14: The Inmost DensMichael Kren1:11.001996-02-22lv14-111.zip - 79
MAP14: The Inmost DensDaniel Lindgren1:29.001996-02-05lv14-129.zip - 146
MAP14: The Inmost DensIstvan Pataki1:36.001996-01-28lv14-136.zip - 121
MAP14: The Inmost DensVincent Catalaa43.002000-02-13nm14-043.zip - 253
MAP14: The Inmost DensHenning Skogsto52.001999-12-31nm14-052.zip - 128
MAP14: The Inmost DensAdam Hegyi53.001999-04-30nm14-053.zip - 157
MAP14: The Inmost DensThomas Pilger1:01.001998-05-27nm14-101.zip - 112
MAP14: The Inmost DensAdam Hegyi1:06.001998-05-08nm14-106.zip - 120
MAP14: The Inmost DensIstvan Pataki1:30.001998-04-21nm14-130.zip - 114
MAP14: The Inmost DensIstvan Pataki1:50.001997-09-04nm14-150.zip - 128
MAP14: The Inmost DensPeo Sjoblom2:23.001997-04-11nm14-223.zip - 105
MAP14: The Inmost DensDaniel Lindgren2:52.001996-05-11nm14-252.zip - 130
MAP14: The Inmost DensIstvan Pataki5:50.001996-04-16nm14-550.zip - 124
MAP14: The Inmost DensDrew DeVore1:46.002002-03-28lv14-146.zip - 603
MAP14: The Inmost DensRadek Pecka1:56.002001-09-13lv14-156.zip - 140
MAP14: The Inmost DensAnders Johnsen1:59.002001-08-30lv14-159.zip - 137
MAP14: The Inmost DensRadek Pecka2:06.002001-08-26lv14-206.zip - 145
MAP14: The Inmost DensAnders Johnsen2:08.001999-01-02lv14-208.zip - 138
MAP14: The Inmost DensDaniel Lindgren2:13.001997-06-24lv14-213.zip - 135
MAP14: The Inmost DensDaniel Lindgren2:36.001996-08-27lv14-236.zip - 128
MAP14: The Inmost DensYonatan Donner2:47.001996-08-23lv14-247.zip - 84
MAP14: The Inmost DensMichael Kren2:51.001996-07-01lv14-251.zip - 235
MAP14: The Inmost DensYonatan Donner2:58.001996-08-23lv14-258.zip - 76
MAP14: The Inmost DensPeo Sjoblom3:04.001996-08-22lv14-304.zip - 94
MAP14: The Inmost DensYonatan Donner3:12.001996-08-24lv14-312.zip - 76
MAP14: The Inmost DensYonatan Donner3:34.001996-08-19lv14-334.zip - 78
MAP14: The Inmost DensDaniel Lindgren3:41.001995-11-24lv14-341.zip - 136
MAP14: The Inmost DensSven Huth8:49.001995-02-14lv14-849.zip - 226
MAP14: The Inmost DensJim Leonard9:31.002003-02-08ty14-931.zip - 301
MAP14: The Inmost DensDaniel Lindgren11:03.001997-07-12ty141103.zip - 149
MAP14: The Inmost DensMarijo Sedlić20.002002-04-29lv14-020.zip - 244
MAP14: The Inmost DensAdam Hegyi25.002000-12-22lv14-025.zip - 154
MAP14: The Inmost DensJaromir Cihak33.002000-07-24pa14-033.zip - 198
MAP14: The Inmost DensVincent Catalaa35.002000-01-12pa14-035.zip - 106
MAP14: The Inmost DensJaromir Cihak43.001999-12-30pa14-043.zip - 113
MAP14: The Inmost DensMarijo Sedlić51.001999-06-10pa14-051.zip - 147
MAP14: The Inmost DensThomas Pilger1:07.001998-09-01pa14-107.zip - 120
MAP14: The Inmost DensRudy Jurjako1:53.001998-03-01pa14-153.zip - 182
MAP14: The Inmost DensIstvan Pataki2:18.001997-05-01pa14-218.zip - 129
MAP14: The Inmost DensRadek Pecka2:13.002004-05-16fa14-213.zip - 246
MAP14: The Inmost DensHenning Skogsto2:18.001999-09-29fa14-218.zip - 134
MAP14: The Inmost DensPeo Sjoblom3:06.001997-03-29fa14-306.zip - 107
MAP14: The Inmost DensPeo Sjoblom5:41.001996-08-05fa14-541.zip - 122
MAP14: The Inmost DensHenning Skogsto1:37.002000-03-22re14-137.zip - 280
MAP14: The Inmost DensZvonimir Bužanić1:43.002000-03-19re14-143.zip - 158
MAP14: The Inmost DensHenning Skogsto1:44.001999-09-28re14-144.zip - 142
MAP14: The Inmost DensZvonimir Bužanić1:46.001999-10-16re14-146.zip - 164
MAP14: The Inmost DensHenning Skogsto1:48.001999-09-06re14-148.zip - 138
MAP14: The Inmost DensZvonimir Bužanić1:50.001999-10-01re14-150.zip - 149
MAP14: The Inmost DensHenning Skogsto1:51.001999-09-06re14-151.zip - 161
MAP14: The Inmost DensHenning Skogsto1:53.001999-09-05re14-153.zip - 106
MAP14: The Inmost DensZvonimir Bužanić1:54.001999-09-30re14-154.zip - 140
MAP14: The Inmost DensZvonimir Bužanić1:57.001999-09-30re14-157.zip - 171
MAP14: The Inmost DensHenning Skogsto1:58.001999-09-05re14-158.zip - 123
MAP14: The Inmost DensZvonimir Bužanić2:00.001999-09-30re14-200.zip - 143
MAP14: The Inmost DensHenning Skogsto2:01.001999-09-04re14-201.zip - 125
MAP14: The Inmost DensZvonimir Bužanić2:02.001999-09-23re14-202.zip - 139
MAP14: The Inmost DensJan Endre Jansen2:43.001998-09-23re14-243.zip - 87
MAP14: The Inmost DensThomas Kroppen4:02.001997-09-12re14-402.zip - 68
MAP14: The Inmost DensLooper 19.492014-08-07d1401949.zip - 349
MAP14: The Inmost DensAdam Hegyi23.542000-12-28d1402354.zip - 157
MAP14: The Inmost DensArno Slagboom25.342001-01-02d1402534.zip - 109
MAP14: The Inmost DensAdam Hegyi32.941999-06-05d1403294.zip - 148
MAP14: The Inmost DensMarko van der Want34.572000-07-15d1403457.zip - 108
MAP14: The Inmost DensKristian Ronge34.682000-07-15d1403468.zip - 488
MAP14: The Inmost DensMarko van der Want38.452000-05-28d1403845.zip - 103
MAP14: The Inmost DensArno Slagboom39.112000-05-04d1403911.zip - 113
Remove: wad | map | category | player | all